sensor_id;sensor_type;location;lat;lon;timestamp;P1;durP1;ratioP1;P2;durP2;ratioP2
11535;SDS011;5824;49.336;8.652;2022-10-16T00:00:30;6.03;;;3.10;;
11535;SDS011;5824;49.336;8.652;2022-10-16T00:02:55;6.77;;;3.23;;
11535;SDS011;5824;49.336;8.652;2022-10-16T00:05:21;5.70;;;3.43;;
11535;SDS011;5824;49.336;8.652;2022-10-16T00:07:46;5.97;;;4.23;;
11535;SDS011;5824;49.336;8.652;2022-10-16T00:10:12;5.43;;;4.43;;
11535;SDS011;5824;49.336;8.652;2022-10-16T00:12:38;6.43;;;4.40;;
11535;SDS011;5824;49.336;8.652;2022-10-16T00:15:04;5.40;;;3.60;;
11535;SDS011;5824;49.336;8.652;2022-10-16T00:17:30;4.83;;;3.20;;
11535;SDS011;5824;49.336;8.652;2022-10-16T00:19:56;3.33;;;2.50;;
11535;SDS011;5824;49.336;8.652;2022-10-16T00:22:22;6.13;;;2.67;;
11535;SDS011;5824;49.336;8.652;2022-10-16T00:24:48;2.83;;;2.27;;
11535;SDS011;5824;49.336;8.652;2022-10-16T00:27:13;3.60;;;2.67;;
11535;SDS011;5824;49.336;8.652;2022-10-16T00:29:39;4.53;;;3.03;;
11535;SDS011;5824;49.336;8.652;2022-10-16T00:32:04;5.57;;;2.73;;
11535;SDS011;5824;49.336;8.652;2022-10-16T00:34:30;2.80;;;2.53;;
11535;SDS011;5824;49.336;8.652;2022-10-16T00:36:56;5.93;;;2.90;;
11535;SDS011;5824;49.336;8.652;2022-10-16T00:39:21;6.83;;;3.07;;
11535;SDS011;5824;49.336;8.652;2022-10-16T00:41:47;8.43;;;2.70;;
11535;SDS011;5824;49.336;8.652;2022-10-16T00:47:07;8.00;;;2.67;;
11535;SDS011;5824;49.336;8.652;2022-10-16T00:49:39;4.07;;;2.43;;
11535;SDS011;5824;49.336;8.652;2022-10-16T00:52:05;4.57;;;2.37;;
11535;SDS011;5824;49.336;8.652;2022-10-16T00:54:31;3.63;;;2.20;;
11535;SDS011;5824;49.336;8.652;2022-10-16T00:56:58;3.20;;;2.27;;
11535;SDS011;5824;49.336;8.652;2022-10-16T00:59:31;8.33;;;2.50;;
11535;SDS011;5824;49.336;8.652;2022-10-16T01:01:57;7.83;;;2.27;;
11535;SDS011;5824;49.336;8.652;2022-10-16T01:04:26;7.40;;;3.00;;
11535;SDS011;5824;49.336;8.652;2022-10-16T01:12:10;4.47;;;3.03;;
11535;SDS011;5824;49.336;8.652;2022-10-16T01:17:34;4.20;;;3.60;;
11535;SDS011;5824;49.336;8.652;2022-10-16T01:22:44;5.30;;;3.13;;
11535;SDS011;5824;49.336;8.652;2022-10-16T01:25:42;15.43;;;2.60;;
11535;SDS011;5824;49.336;8.652;2022-10-16T01:28:27;8.10;;;2.80;;
11535;SDS011;5824;49.336;8.652;2022-10-16T01:30:59;4.73;;;2.60;;
11535;SDS011;5824;49.336;8.652;2022-10-16T01:33:30;6.33;;;3.57;;
11535;SDS011;5824;49.336;8.652;2022-10-16T01:36:05;5.40;;;3.70;;
11535;SDS011;5824;49.336;8.652;2022-10-16T01:38:37;9.97;;;6.60;;
11535;SDS011;5824;49.336;8.652;2022-10-16T01:41:08;12.83;;;9.23;;
11535;SDS011;5824;49.336;8.652;2022-10-16T01:43:56;15.50;;;10.20;;
11535;SDS011;5824;49.336;8.652;2022-10-16T01:46:33;8.00;;;4.27;;
11535;SDS011;5824;49.336;8.652;2022-10-16T01:49:02;6.90;;;3.20;;
11535;SDS011;5824;49.336;8.652;2022-10-16T01:51:29;6.73;;;3.13;;
11535;SDS011;5824;49.336;8.652;2022-10-16T01:53:55;4.40;;;3.17;;
11535;SDS011;5824;49.336;8.652;2022-10-16T01:56:24;9.53;;;2.77;;
11535;SDS011;5824;49.336;8.652;2022-10-16T01:58:55;4.70;;;3.20;;
11535;SDS011;5824;49.336;8.652;2022-10-16T02:01:29;11.00;;;3.50;;
11535;SDS011;5824;49.336;8.652;2022-10-16T02:03:58;6.83;;;3.37;;
11535;SDS011;5824;49.336;8.652;2022-10-16T02:06:32;4.20;;;2.87;;
11535;SDS011;5824;49.336;8.652;2022-10-16T02:08:58;10.03;;;3.30;;
11535;SDS011;5824;49.336;8.652;2022-10-16T02:11:24;7.03;;;3.30;;
11535;SDS011;5824;49.336;8.652;2022-10-16T02:13:53;6.33;;;3.50;;
11535;SDS011;5824;49.336;8.652;2022-10-16T02:16:58;10.03;;;2.80;;
11535;SDS011;5824;49.336;8.652;2022-10-16T02:19:17;5.43;;;3.23;;
11535;SDS011;5824;49.336;8.652;2022-10-16T02:21:53;5.70;;;3.47;;
11535;SDS011;5824;49.336;8.652;2022-10-16T02:24:27;4.50;;;3.47;;
11535;SDS011;5824;49.336;8.652;2022-10-16T02:29:52;8.13;;;3.80;;
11535;SDS011;5824;49.336;8.652;2022-10-16T02:32:24;4.37;;;3.70;;
11535;SDS011;5824;49.336;8.652;2022-10-16T02:34:55;7.70;;;3.40;;
11535;SDS011;5824;49.336;8.652;2022-10-16T02:37:22;7.30;;;3.27;;
11535;SDS011;5824;49.336;8.652;2022-10-16T02:39:49;6.50;;;3.10;;
11535;SDS011;5824;49.336;8.652;2022-10-16T02:42:17;8.30;;;3.27;;
11535;SDS011;5824;49.336;8.652;2022-10-16T02:44:43;7.63;;;3.00;;
11535;SDS011;5824;49.336;8.652;2022-10-16T02:47:09;4.10;;;3.13;;
11535;SDS011;5824;49.336;8.652;2022-10-16T02:49:34;4.50;;;2.90;;
11535;SDS011;5824;49.336;8.652;2022-10-16T02:52:00;5.00;;;3.10;;
11535;SDS011;5824;49.336;8.652;2022-10-16T02:54:26;4.37;;;3.50;;
11535;SDS011;5824;49.336;8.652;2022-10-16T02:56:51;8.43;;;4.27;;
11535;SDS011;5824;49.336;8.652;2022-10-16T02:59:17;6.33;;;3.40;;
11535;SDS011;5824;49.336;8.652;2022-10-16T03:01:42;3.67;;;2.90;;
11535;SDS011;5824;49.336;8.652;2022-10-16T03:04:08;4.30;;;2.77;;
11535;SDS011;5824;49.336;8.652;2022-10-16T03:06:34;2.90;;;2.60;;
11535;SDS011;5824;49.336;8.652;2022-10-16T03:08:59;5.40;;;2.50;;
11535;SDS011;5824;49.336;8.652;2022-10-16T03:11:25;4.57;;;2.37;;
11535;SDS011;5824;49.336;8.652;2022-10-16T03:13:51;2.97;;;2.67;;
11535;SDS011;5824;49.336;8.652;2022-10-16T03:16:17;5.90;;;2.67;;
11535;SDS011;5824;49.336;8.652;2022-10-16T03:18:42;3.43;;;2.33;;
11535;SDS011;5824;49.336;8.652;2022-10-16T03:21:08;6.70;;;2.60;;
11535;SDS011;5824;49.336;8.652;2022-10-16T03:23:33;5.33;;;2.43;;
11535;SDS011;5824;49.336;8.652;2022-10-16T03:25:59;6.97;;;2.60;;
11535;SDS011;5824;49.336;8.652;2022-10-16T03:28:24;6.13;;;2.60;;
11535;SDS011;5824;49.336;8.652;2022-10-16T03:30:50;5.70;;;2.50;;
11535;SDS011;5824;49.336;8.652;2022-10-16T03:33:15;7.20;;;2.80;;
11535;SDS011;5824;49.336;8.652;2022-10-16T03:35:41;7.37;;;2.87;;
11535;SDS011;5824;49.336;8.652;2022-10-16T03:38:06;3.30;;;2.47;;
11535;SDS011;5824;49.336;8.652;2022-10-16T03:40:32;3.40;;;2.20;;
11535;SDS011;5824;49.336;8.652;2022-10-16T03:42:58;3.13;;;2.60;;
11535;SDS011;5824;49.336;8.652;2022-10-16T03:45:24;5.33;;;2.27;;
11535;SDS011;5824;49.336;8.652;2022-10-16T03:47:51;8.80;;;2.40;;
11535;SDS011;5824;49.336;8.652;2022-10-16T03:50:16;5.70;;;2.43;;
11535;SDS011;5824;49.336;8.652;2022-10-16T03:52:42;5.70;;;2.40;;
11535;SDS011;5824;49.336;8.652;2022-10-16T03:55:07;3.43;;;2.43;;
11535;SDS011;5824;49.336;8.652;2022-10-16T03:57:33;2.60;;;2.40;;
11535;SDS011;5824;49.336;8.652;2022-10-16T03:59:59;2.37;;;2.17;;
11535;SDS011;5824;49.336;8.652;2022-10-16T04:02:24;9.53;;;2.63;;
11535;SDS011;5824;49.336;8.652;2022-10-16T04:04:50;3.87;;;2.13;;
11535;SDS011;5824;49.336;8.652;2022-10-16T04:07:15;2.40;;;2.07;;
11535;SDS011;5824;49.336;8.652;2022-10-16T04:09:41;8.77;;;2.60;;
11535;SDS011;5824;49.336;8.652;2022-10-16T04:12:06;8.00;;;2.53;;
11535;SDS011;5824;49.336;8.652;2022-10-16T04:14:32;6.50;;;2.77;;
11535;SDS011;5824;49.336;8.652;2022-10-16T04:16:58;8.83;;;2.50;;
11535;SDS011;5824;49.336;8.652;2022-10-16T04:19:23;7.13;;;2.70;;
11535;SDS011;5824;49.336;8.652;2022-10-16T04:21:49;5.00;;;2.10;;
11535;SDS011;5824;49.336;8.652;2022-10-16T04:24:14;5.77;;;2.57;;
11535;SDS011;5824;49.336;8.652;2022-10-16T04:26:40;4.67;;;2.30;;
11535;SDS011;5824;49.336;8.652;2022-10-16T04:29:05;5.83;;;2.30;;
11535;SDS011;5824;49.336;8.652;2022-10-16T04:31:32;5.40;;;2.63;;
11535;SDS011;5824;49.336;8.652;2022-10-16T04:33:57;7.53;;;3.20;;
11535;SDS011;5824;49.336;8.652;2022-10-16T04:36:23;8.63;;;3.77;;
11535;SDS011;5824;49.336;8.652;2022-10-16T04:38:48;6.53;;;3.00;;
11535;SDS011;5824;49.336;8.652;2022-10-16T04:41:14;4.17;;;2.83;;
11535;SDS011;5824;49.336;8.652;2022-10-16T04:43:39;9.00;;;3.50;;
11535;SDS011;5824;49.336;8.652;2022-10-16T04:46:05;6.07;;;3.10;;
11535;SDS011;5824;49.336;8.652;2022-10-16T04:48:31;8.90;;;3.30;;
11535;SDS011;5824;49.336;8.652;2022-10-16T04:50:57;7.23;;;3.00;;
11535;SDS011;5824;49.336;8.652;2022-10-16T04:53:22;3.30;;;2.60;;
11535;SDS011;5824;49.336;8.652;2022-10-16T04:55:48;2.70;;;2.47;;
11535;SDS011;5824;49.336;8.652;2022-10-16T04:58:14;4.30;;;3.00;;
11535;SDS011;5824;49.336;8.652;2022-10-16T05:00:39;5.10;;;2.43;;
11535;SDS011;5824;49.336;8.652;2022-10-16T05:03:05;10.67;;;3.30;;
11535;SDS011;5824;49.336;8.652;2022-10-16T05:05:33;3.60;;;3.20;;
11535;SDS011;5824;49.336;8.652;2022-10-16T05:07:59;5.30;;;2.30;;
11535;SDS011;5824;49.336;8.652;2022-10-16T05:10:25;5.83;;;2.70;;
11535;SDS011;5824;49.336;8.652;2022-10-16T05:12:50;3.50;;;2.50;;
11535;SDS011;5824;49.336;8.652;2022-10-16T05:15:16;4.83;;;2.33;;
11535;SDS011;5824;49.336;8.652;2022-10-16T05:17:42;3.23;;;2.00;;
11535;SDS011;5824;49.336;8.652;2022-10-16T05:20:07;4.60;;;2.20;;
11535;SDS011;5824;49.336;8.652;2022-10-16T05:22:33;3.83;;;2.17;;
11535;SDS011;5824;49.336;8.652;2022-10-16T05:24:59;5.33;;;2.13;;
11535;SDS011;5824;49.336;8.652;2022-10-16T05:27:24;7.57;;;2.43;;
11535;SDS011;5824;49.336;8.652;2022-10-16T05:29:50;8.90;;;2.80;;
11535;SDS011;5824;49.336;8.652;2022-10-16T05:32:16;4.27;;;2.30;;
11535;SDS011;5824;49.336;8.652;2022-10-16T05:34:42;9.47;;;3.50;;
11535;SDS011;5824;49.336;8.652;2022-10-16T05:37:08;11.83;;;2.90;;
11535;SDS011;5824;49.336;8.652;2022-10-16T05:39:34;5.27;;;2.67;;
11535;SDS011;5824;49.336;8.652;2022-10-16T05:41:59;7.20;;;2.20;;
11535;SDS011;5824;49.336;8.652;2022-10-16T05:44:25;5.20;;;2.30;;
11535;SDS011;5824;49.336;8.652;2022-10-16T05:46:50;4.77;;;2.43;;
11535;SDS011;5824;49.336;8.652;2022-10-16T05:49:16;4.03;;;2.10;;
11535;SDS011;5824;49.336;8.652;2022-10-16T05:51:41;4.20;;;2.10;;
11535;SDS011;5824;49.336;8.652;2022-10-16T05:54:07;2.10;;;1.90;;
11535;SDS011;5824;49.336;8.652;2022-10-16T05:56:33;4.60;;;2.23;;
11535;SDS011;5824;49.336;8.652;2022-10-16T05:58:59;4.00;;;2.10;;
11535;SDS011;5824;49.336;8.652;2022-10-16T06:01:24;3.60;;;2.10;;
11535;SDS011;5824;49.336;8.652;2022-10-16T06:03:51;2.13;;;1.83;;
11535;SDS011;5824;49.336;8.652;2022-10-16T06:06:18;5.53;;;2.57;;
11535;SDS011;5824;49.336;8.652;2022-10-16T06:08:45;2.17;;;1.90;;
11535;SDS011;5824;49.336;8.652;2022-10-16T06:11:13;3.23;;;1.80;;
11535;SDS011;5824;49.336;8.652;2022-10-16T06:13:43;5.93;;;2.67;;
11535;SDS011;5824;49.336;8.652;2022-10-16T06:16:11;4.00;;;2.00;;
11535;SDS011;5824;49.336;8.652;2022-10-16T06:18:37;17.37;;;2.93;;
11535;SDS011;5824;49.336;8.652;2022-10-16T06:21:07;3.97;;;2.37;;
11535;SDS011;5824;49.336;8.652;2022-10-16T06:23:34;6.50;;;2.40;;
11535;SDS011;5824;49.336;8.652;2022-10-16T06:26:10;8.97;;;4.47;;
11535;SDS011;5824;49.336;8.652;2022-10-16T06:28:38;17.23;;;8.60;;
11535;SDS011;5824;49.336;8.652;2022-10-16T06:31:04;15.27;;;7.57;;
11535;SDS011;5824;49.336;8.652;2022-10-16T06:33:31;9.27;;;3.97;;
11535;SDS011;5824;49.336;8.652;2022-10-16T06:36:04;5.60;;;2.43;;
11535;SDS011;5824;49.336;8.652;2022-10-16T06:38:31;3.20;;;2.67;;
11535;SDS011;5824;49.336;8.652;2022-10-16T06:40:57;3.63;;;2.57;;
11535;SDS011;5824;49.336;8.652;2022-10-16T06:43:23;3.57;;;2.70;;
11535;SDS011;5824;49.336;8.652;2022-10-16T06:45:52;5.47;;;2.63;;
11535;SDS011;5824;49.336;8.652;2022-10-16T06:48:19;5.03;;;3.70;;
11535;SDS011;5824;49.336;8.652;2022-10-16T06:50:54;5.90;;;4.00;;
11535;SDS011;5824;49.336;8.652;2022-10-16T06:53:26;5.53;;;3.87;;
11535;SDS011;5824;49.336;8.652;2022-10-16T06:55:53;8.17;;;4.70;;
11535;SDS011;5824;49.336;8.652;2022-10-16T06:58:19;6.77;;;5.17;;
11535;SDS011;5824;49.336;8.652;2022-10-16T07:00:44;7.77;;;5.47;;
11535;SDS011;5824;49.336;8.652;2022-10-16T07:03:10;8.17;;;5.27;;
11535;SDS011;5824;49.336;8.652;2022-10-16T07:05:39;4.30;;;2.70;;
11535;SDS011;5824;49.336;8.652;2022-10-16T07:08:06;5.07;;;2.40;;
11535;SDS011;5824;49.336;8.652;2022-10-16T07:10:32;8.47;;;3.30;;
11535;SDS011;5824;49.336;8.652;2022-10-16T07:12:58;4.53;;;2.73;;
11535;SDS011;5824;49.336;8.652;2022-10-16T07:15:24;5.13;;;3.20;;
11535;SDS011;5824;49.336;8.652;2022-10-16T07:17:50;4.87;;;3.50;;
11535;SDS011;5824;49.336;8.652;2022-10-16T07:20:15;3.90;;;3.10;;
11535;SDS011;5824;49.336;8.652;2022-10-16T07:22:41;4.33;;;3.53;;
11535;SDS011;5824;49.336;8.652;2022-10-16T07:25:07;9.17;;;3.23;;
11535;SDS011;5824;49.336;8.652;2022-10-16T07:27:33;3.77;;;2.93;;
11535;SDS011;5824;49.336;8.652;2022-10-16T07:29:59;7.20;;;4.30;;
11535;SDS011;5824;49.336;8.652;2022-10-16T07:32:24;5.20;;;3.60;;
11535;SDS011;5824;49.336;8.652;2022-10-16T07:34:50;6.27;;;3.00;;
11535;SDS011;5824;49.336;8.652;2022-10-16T07:37:16;4.43;;;3.63;;
11535;SDS011;5824;49.336;8.652;2022-10-16T07:39:42;7.00;;;4.03;;
11535;SDS011;5824;49.336;8.652;2022-10-16T07:42:08;7.30;;;3.80;;
11535;SDS011;5824;49.336;8.652;2022-10-16T07:44:33;4.40;;;3.80;;
11535;SDS011;5824;49.336;8.652;2022-10-16T07:46:59;5.10;;;3.10;;
11535;SDS011;5824;49.336;8.652;2022-10-16T07:49:24;4.30;;;2.70;;
11535;SDS011;5824;49.336;8.652;2022-10-16T07:51:50;4.53;;;3.17;;
11535;SDS011;5824;49.336;8.652;2022-10-16T07:54:16;3.73;;;2.70;;
11535;SDS011;5824;49.336;8.652;2022-10-16T07:56:41;3.13;;;2.83;;
11535;SDS011;5824;49.336;8.652;2022-10-16T07:59:07;3.43;;;2.93;;
11535;SDS011;5824;49.336;8.652;2022-10-16T08:01:32;4.77;;;2.90;;
11535;SDS011;5824;49.336;8.652;2022-10-16T08:03:58;4.67;;;2.50;;
11535;SDS011;5824;49.336;8.652;2022-10-16T08:06:23;5.77;;;2.27;;
11535;SDS011;5824;49.336;8.652;2022-10-16T08:08:49;3.93;;;2.50;;
11535;SDS011;5824;49.336;8.652;2022-10-16T08:11:15;13.80;;;3.33;;
11535;SDS011;5824;49.336;8.652;2022-10-16T08:13:41;5.30;;;2.40;;
11535;SDS011;5824;49.336;8.652;2022-10-16T08:16:07;11.47;;;4.87;;
11535;SDS011;5824;49.336;8.652;2022-10-16T08:18:37;7.47;;;3.10;;
11535;SDS011;5824;49.336;8.652;2022-10-16T08:21:04;8.30;;;3.17;;
11535;SDS011;5824;49.336;8.652;2022-10-16T08:23:32;6.33;;;2.97;;
11535;SDS011;5824;49.336;8.652;2022-10-16T08:26:01;3.90;;;2.30;;
11535;SDS011;5824;49.336;8.652;2022-10-16T08:28:29;3.37;;;2.03;;
11535;SDS011;5824;49.336;8.652;2022-10-16T08:30:55;3.63;;;2.70;;
11535;SDS011;5824;49.336;8.652;2022-10-16T08:33:21;3.87;;;2.80;;
11535;SDS011;5824;49.336;8.652;2022-10-16T08:35:53;4.20;;;3.03;;
11535;SDS011;5824;49.336;8.652;2022-10-16T08:38:19;4.43;;;2.73;;
11535;SDS011;5824;49.336;8.652;2022-10-16T08:40:45;3.97;;;2.70;;
11535;SDS011;5824;49.336;8.652;2022-10-16T08:43:30;3.77;;;2.67;;
11535;SDS011;5824;49.336;8.652;2022-10-16T08:49:15;4.17;;;2.50;;
11535;SDS011;5824;49.336;8.652;2022-10-16T08:51:41;5.50;;;2.90;;
11535;SDS011;5824;49.336;8.652;2022-10-16T08:54:15;10.30;;;2.50;;
11535;SDS011;5824;49.336;8.652;2022-10-16T08:56:53;3.70;;;3.10;;
11535;SDS011;5824;49.336;8.652;2022-10-16T08:59:20;4.07;;;2.53;;
11535;SDS011;5824;49.336;8.652;2022-10-16T09:01:47;5.70;;;3.67;;
11535;SDS011;5824;49.336;8.652;2022-10-16T09:04:34;4.10;;;2.57;;
11535;SDS011;5824;49.336;8.652;2022-10-16T09:12:41;4.70;;;2.10;;
11535;SDS011;5824;49.336;8.652;2022-10-16T09:18:06;5.00;;;2.20;;
11535;SDS011;5824;49.336;8.652;2022-10-16T09:21:04;8.33;;;2.13;;
11535;SDS011;5824;49.336;8.652;2022-10-16T09:23:51;3.53;;;2.17;;
11535;SDS011;5824;49.336;8.652;2022-10-16T09:26:18;9.83;;;2.50;;
11535;SDS011;5824;49.336;8.652;2022-10-16T09:28:46;2.97;;;1.67;;
11535;SDS011;5824;49.336;8.652;2022-10-16T09:31:13;5.87;;;2.20;;
11535;SDS011;5824;49.336;8.652;2022-10-16T09:33:42;9.77;;;2.13;;
11535;SDS011;5824;49.336;8.652;2022-10-16T09:36:10;8.50;;;2.03;;
11535;SDS011;5824;49.336;8.652;2022-10-16T09:38:37;8.60;;;2.40;;
11535;SDS011;5824;49.336;8.652;2022-10-16T09:48:54;8.03;;;1.97;;
11535;SDS011;5824;49.336;8.652;2022-10-16T09:54:34;6.10;;;1.80;;
11535;SDS011;5824;49.336;8.652;2022-10-16T09:56:41;4.60;;;2.10;;
11535;SDS011;5824;49.336;8.652;2022-10-16T09:59:14;8.57;;;2.20;;
11535;SDS011;5824;49.336;8.652;2022-10-16T10:01:44;4.87;;;1.90;;
11535;SDS011;5824;49.336;8.652;2022-10-16T10:04:12;4.03;;;2.30;;
11535;SDS011;5824;49.336;8.652;2022-10-16T10:06:45;4.00;;;2.13;;
11535;SDS011;5824;49.336;8.652;2022-10-16T10:14:26;4.00;;;2.37;;
11535;SDS011;5824;49.336;8.652;2022-10-16T10:17:01;3.97;;;2.20;;
11535;SDS011;5824;49.336;8.652;2022-10-16T10:19:37;2.90;;;2.10;;
11535;SDS011;5824;49.336;8.652;2022-10-16T10:25:13;8.13;;;1.97;;
11535;SDS011;5824;49.336;8.652;2022-10-16T10:33:26;4.70;;;2.20;;
11535;SDS011;5824;49.336;8.652;2022-10-16T10:36:32;8.37;;;2.20;;
11535;SDS011;5824;49.336;8.652;2022-10-16T10:39:13;8.43;;;2.50;;
11535;SDS011;5824;49.336;8.652;2022-10-16T10:41:52;3.47;;;2.27;;
11535;SDS011;5824;49.336;8.652;2022-10-16T10:47:08;4.50;;;1.90;;
11535;SDS011;5824;49.336;8.652;2022-10-16T10:55:02;4.05;;;2.05;;
11535;SDS011;5824;49.336;8.652;2022-10-16T10:57:45;9.50;;;2.00;;
11535;SDS011;5824;49.336;8.652;2022-10-16T11:06:05;2.85;;;1.80;;
11535;SDS011;5824;49.336;8.652;2022-10-16T11:08:36;3.03;;;1.77;;
11535;SDS011;5824;49.336;8.652;2022-10-16T11:11:08;5.70;;;2.00;;
11535;SDS011;5824;49.336;8.652;2022-10-16T11:13:55;5.20;;;1.98;;
11535;SDS011;5824;49.336;8.652;2022-10-16T11:16:43;5.03;;;2.00;;
11535;SDS011;5824;49.336;8.652;2022-10-16T11:19:39;5.32;;;1.80;;
11535;SDS011;5824;49.336;8.652;2022-10-16T11:25:16;5.45;;;2.05;;
11535;SDS011;5824;49.336;8.652;2022-10-16T11:30:22;7.03;;;1.70;;
11535;SDS011;5824;49.336;8.652;2022-10-16T11:35:47;4.35;;;2.20;;
11535;SDS011;5824;49.336;8.652;2022-10-16T11:41:29;3.58;;;2.20;;
11535;SDS011;5824;49.336;8.652;2022-10-16T11:46:59;4.15;;;2.08;;
11535;SDS011;5824;49.336;8.652;2022-10-16T11:49:45;4.80;;;2.13;;
11535;SDS011;5824;49.336;8.652;2022-10-16T11:52:22;8.75;;;2.30;;
11535;SDS011;5824;49.336;8.652;2022-10-16T11:55:23;5.68;;;2.17;;
11535;SDS011;5824;49.336;8.652;2022-10-16T12:03:31;4.20;;;2.40;;
11535;SDS011;5824;49.336;8.652;2022-10-16T12:06:11;5.27;;;3.03;;
11535;SDS011;5824;49.336;8.652;2022-10-16T12:08:44;9.93;;;2.50;;
11535;SDS011;5824;49.336;8.652;2022-10-16T12:13:51;3.50;;;2.00;;
11535;SDS011;5824;49.336;8.652;2022-10-16T12:16:28;5.30;;;2.10;;
11535;SDS011;5824;49.336;8.652;2022-10-16T12:19:13;7.53;;;2.07;;
11535;SDS011;5824;49.336;8.652;2022-10-16T12:21:41;5.03;;;2.20;;
11535;SDS011;5824;49.336;8.652;2022-10-16T12:24:19;4.73;;;2.60;;
11535;SDS011;5824;49.336;8.652;2022-10-16T12:27:24;4.07;;;2.50;;
11535;SDS011;5824;49.336;8.652;2022-10-16T12:29:56;3.53;;;2.40;;
11535;SDS011;5824;49.336;8.652;2022-10-16T12:32:34;7.23;;;4.00;;
11535;SDS011;5824;49.336;8.652;2022-10-16T12:35:01;5.07;;;2.77;;
11535;SDS011;5824;49.336;8.652;2022-10-16T12:37:31;9.30;;;5.10;;
11535;SDS011;5824;49.336;8.652;2022-10-16T12:40:12;4.70;;;2.63;;
11535;SDS011;5824;49.336;8.652;2022-10-16T12:42:41;4.80;;;2.40;;
11535;SDS011;5824;49.336;8.652;2022-10-16T12:45:39;5.77;;;2.63;;
11535;SDS011;5824;49.336;8.652;2022-10-16T12:48:00;3.43;;;2.23;;
11535;SDS011;5824;49.336;8.652;2022-10-16T12:50:32;10.60;;;2.53;;
11535;SDS011;5824;49.336;8.652;2022-10-16T12:53:01;5.67;;;2.83;;
11535;SDS011;5824;49.336;8.652;2022-10-16T12:55:30;3.93;;;2.10;;
11535;SDS011;5824;49.336;8.652;2022-10-16T12:58:19;5.07;;;2.40;;
11535;SDS011;5824;49.336;8.652;2022-10-16T13:03:37;10.80;;;2.60;;
11535;SDS011;5824;49.336;8.652;2022-10-16T13:06:46;6.77;;;2.23;;
11535;SDS011;5824;49.336;8.652;2022-10-16T13:15:16;5.50;;;2.70;;
11535;SDS011;5824;49.336;8.652;2022-10-16T13:17:51;3.80;;;2.20;;
11535;SDS011;5824;49.336;8.652;2022-10-16T13:23:34;10.33;;;2.70;;
11535;SDS011;5824;49.336;8.652;2022-10-16T13:26:14;5.80;;;2.20;;
11535;SDS011;5824;49.336;8.652;2022-10-16T13:28:48;6.50;;;2.73;;
11535;SDS011;5824;49.336;8.652;2022-10-16T13:31:15;3.90;;;2.37;;
11535;SDS011;5824;49.336;8.652;2022-10-16T13:33:48;6.57;;;3.07;;
11535;SDS011;5824;49.336;8.652;2022-10-16T13:37:01;3.27;;;2.53;;
11535;SDS011;5824;49.336;8.652;2022-10-16T13:39:12;5.20;;;2.40;;
11535;SDS011;5824;49.336;8.652;2022-10-16T13:41:39;5.23;;;3.10;;
11535;SDS011;5824;49.336;8.652;2022-10-16T13:44:08;9.33;;;2.90;;
11535;SDS011;5824;49.336;8.652;2022-10-16T13:46:40;10.60;;;2.70;;
11535;SDS011;5824;49.336;8.652;2022-10-16T13:49:10;3.67;;;2.53;;
11535;SDS011;5824;49.336;8.652;2022-10-16T13:51:40;4.43;;;2.60;;
11535;SDS011;5824;49.336;8.652;2022-10-16T13:54:10;4.50;;;2.73;;
11535;SDS011;5824;49.336;8.652;2022-10-16T13:56:38;7.90;;;3.50;;
11535;SDS011;5824;49.336;8.652;2022-10-16T13:59:06;4.30;;;2.43;;
11535;SDS011;5824;49.336;8.652;2022-10-16T14:01:47;5.50;;;3.10;;
11535;SDS011;5824;49.336;8.652;2022-10-16T14:04:13;7.57;;;3.07;;
11535;SDS011;5824;49.336;8.652;2022-10-16T14:06:43;8.00;;;2.90;;
11535;SDS011;5824;49.336;8.652;2022-10-16T14:11:48;6.30;;;3.13;;
11535;SDS011;5824;49.336;8.652;2022-10-16T14:14:16;7.20;;;3.00;;
11535;SDS011;5824;49.336;8.652;2022-10-16T14:16:43;7.47;;;4.47;;
11535;SDS011;5824;49.336;8.652;2022-10-16T14:21:49;10.47;;;5.23;;
11535;SDS011;5824;49.336;8.652;2022-10-16T14:24:34;6.83;;;3.50;;
11535;SDS011;5824;49.336;8.652;2022-10-16T14:27:00;5.47;;;3.10;;
11535;SDS011;5824;49.336;8.652;2022-10-16T14:29:28;6.73;;;2.83;;
11535;SDS011;5824;49.336;8.652;2022-10-16T14:32:03;5.97;;;2.73;;
11535;SDS011;5824;49.336;8.652;2022-10-16T14:34:52;9.20;;;3.03;;
11535;SDS011;5824;49.336;8.652;2022-10-16T14:39:49;10.03;;;4.63;;
11535;SDS011;5824;49.336;8.652;2022-10-16T14:42:19;9.73;;;5.33;;
11535;SDS011;5824;49.336;8.652;2022-10-16T14:44:50;10.00;;;6.93;;
11535;SDS011;5824;49.336;8.652;2022-10-16T14:47:22;9.77;;;5.70;;
11535;SDS011;5824;49.336;8.652;2022-10-16T14:49:51;8.50;;;5.00;;
11535;SDS011;5824;49.336;8.652;2022-10-16T14:52:18;7.20;;;4.83;;
11535;SDS011;5824;49.336;8.652;2022-10-16T14:54:43;10.77;;;4.97;;
11535;SDS011;5824;49.336;8.652;2022-10-16T14:57:17;11.23;;;6.53;;
11535;SDS011;5824;49.336;8.652;2022-10-16T14:59:44;11.03;;;7.53;;
11535;SDS011;5824;49.336;8.652;2022-10-16T15:02:23;13.30;;;7.60;;
11535;SDS011;5824;49.336;8.652;2022-10-16T15:04:53;11.90;;;6.37;;
11535;SDS011;5824;49.336;8.652;2022-10-16T15:07:18;11.30;;;5.60;;
11535;SDS011;5824;49.336;8.652;2022-10-16T15:09:44;9.93;;;5.80;;
11535;SDS011;5824;49.336;8.652;2022-10-16T15:12:09;13.80;;;7.93;;
11535;SDS011;5824;49.336;8.652;2022-10-16T15:14:35;16.90;;;7.97;;
11535;SDS011;5824;49.336;8.652;2022-10-16T15:17:01;13.67;;;6.87;;
11535;SDS011;5824;49.336;8.652;2022-10-16T15:19:27;11.10;;;5.90;;
11535;SDS011;5824;49.336;8.652;2022-10-16T15:21:52;14.83;;;5.13;;
11535;SDS011;5824;49.336;8.652;2022-10-16T15:24:18;9.13;;;4.43;;
11535;SDS011;5824;49.336;8.652;2022-10-16T15:26:44;9.80;;;4.37;;
11535;SDS011;5824;49.336;8.652;2022-10-16T15:29:11;9.07;;;4.10;;
11535;SDS011;5824;49.336;8.652;2022-10-16T15:31:37;5.40;;;3.97;;
11535;SDS011;5824;49.336;8.652;2022-10-16T15:34:02;8.87;;;3.70;;
11535;SDS011;5824;49.336;8.652;2022-10-16T15:36:32;7.80;;;3.70;;
11535;SDS011;5824;49.336;8.652;2022-10-16T15:39:01;8.83;;;3.70;;
11535;SDS011;5824;49.336;8.652;2022-10-16T15:41:28;7.90;;;3.57;;
11535;SDS011;5824;49.336;8.652;2022-10-16T15:43:53;7.17;;;2.97;;
11535;SDS011;5824;49.336;8.652;2022-10-16T15:46:20;4.17;;;3.07;;
11535;SDS011;5824;49.336;8.652;2022-10-16T15:48:48;6.57;;;3.20;;
11535;SDS011;5824;49.336;8.652;2022-10-16T15:51:15;6.03;;;3.27;;
11535;SDS011;5824;49.336;8.652;2022-10-16T15:53:42;7.33;;;3.40;;
11535;SDS011;5824;49.336;8.652;2022-10-16T15:56:08;8.27;;;3.33;;
11535;SDS011;5824;49.336;8.652;2022-10-16T15:58:35;4.20;;;3.00;;
11535;SDS011;5824;49.336;8.652;2022-10-16T16:01:00;10.00;;;3.20;;
11535;SDS011;5824;49.336;8.652;2022-10-16T16:03:27;4.40;;;3.27;;
11535;SDS011;5824;49.336;8.652;2022-10-16T16:05:53;9.33;;;3.23;;
11535;SDS011;5824;49.336;8.652;2022-10-16T16:08:19;6.57;;;4.30;;
11535;SDS011;5824;49.336;8.652;2022-10-16T16:10:45;12.70;;;5.93;;
11535;SDS011;5824;49.336;8.652;2022-10-16T16:13:10;14.10;;;5.77;;
11535;SDS011;5824;49.336;8.652;2022-10-16T16:15:39;12.80;;;5.40;;
11535;SDS011;5824;49.336;8.652;2022-10-16T16:18:05;7.17;;;4.47;;
11535;SDS011;5824;49.336;8.652;2022-10-16T16:20:31;7.20;;;4.10;;
11535;SDS011;5824;49.336;8.652;2022-10-16T16:22:57;9.63;;;3.53;;
11535;SDS011;5824;49.336;8.652;2022-10-16T16:25:22;9.13;;;3.70;;
11535;SDS011;5824;49.336;8.652;2022-10-16T16:27:48;8.80;;;5.30;;
11535;SDS011;5824;49.336;8.652;2022-10-16T16:30:14;16.90;;;9.50;;
11535;SDS011;5824;49.336;8.652;2022-10-16T16:32:39;18.07;;;9.30;;
11535;SDS011;5824;49.336;8.652;2022-10-16T16:35:05;18.00;;;10.80;;
11535;SDS011;5824;49.336;8.652;2022-10-16T16:37:31;37.70;;;14.77;;
11535;SDS011;5824;49.336;8.652;2022-10-16T16:39:57;17.73;;;10.93;;
11535;SDS011;5824;49.336;8.652;2022-10-16T16:42:25;19.03;;;9.70;;
11535;SDS011;5824;49.336;8.652;2022-10-16T16:44:51;22.97;;;10.80;;
11535;SDS011;5824;49.336;8.652;2022-10-16T16:47:17;17.70;;;11.00;;
11535;SDS011;5824;49.336;8.652;2022-10-16T16:49:43;19.30;;;12.60;;
11535;SDS011;5824;49.336;8.652;2022-10-16T16:52:08;21.17;;;11.10;;
11535;SDS011;5824;49.336;8.652;2022-10-16T16:54:34;36.63;;;14.27;;
11535;SDS011;5824;49.336;8.652;2022-10-16T16:56:59;22.33;;;12.80;;
11535;SDS011;5824;49.336;8.652;2022-10-16T16:59:25;18.37;;;9.90;;
11535;SDS011;5824;49.336;8.652;2022-10-16T17:01:51;21.23;;;11.23;;